sensor_id;sensor_type;location;lat;lon;timestamp;P1;durP1;ratioP1;P2;durP2;ratioP2
82930;SDS011;72705;53.346;10.248;2024-03-02T00:00:49;35.63;;;17.65;;
82930;SDS011;72705;53.346;10.248;2024-03-02T00:03:16;32.92;;;16.25;;
82930;SDS011;72705;53.346;10.248;2024-03-02T00:05:41;40.63;;;17.73;;
82930;SDS011;72705;53.346;10.248;2024-03-02T00:08:07;43.88;;;18.92;;
82930;SDS011;72705;53.346;10.248;2024-03-02T00:10:37;37.90;;;17.48;;
82930;SDS011;72705;53.346;10.248;2024-03-02T00:13:05;43.67;;;19.30;;
82930;SDS011;72705;53.346;10.248;2024-03-02T00:18:21;44.88;;;19.88;;
82930;SDS011;72705;53.346;10.248;2024-03-02T00:20:54;44.03;;;18.80;;
82930;SDS011;72705;53.346;10.248;2024-03-02T00:23:25;41.08;;;18.25;;
82930;SDS011;72705;53.346;10.248;2024-03-02T00:25:54;40.55;;;19.33;;
82930;SDS011;72705;53.346;10.248;2024-03-02T00:28:24;43.08;;;19.05;;
82930;SDS011;72705;53.346;10.248;2024-03-02T00:33:22;42.97;;;19.77;;
82930;SDS011;72705;53.346;10.248;2024-03-02T00:35:49;45.30;;;21.25;;
82930;SDS011;72705;53.346;10.248;2024-03-02T00:38:15;48.13;;;20.58;;
82930;SDS011;72705;53.346;10.248;2024-03-02T00:40:42;41.17;;;19.38;;
82930;SDS011;72705;53.346;10.248;2024-03-02T00:43:11;47.70;;;21.63;;
82930;SDS011;72705;53.346;10.248;2024-03-02T00:46:01;44.10;;;19.63;;
82930;SDS011;72705;53.346;10.248;2024-03-02T00:48:26;50.15;;;21.10;;
82930;SDS011;72705;53.346;10.248;2024-03-02T00:50:52;46.20;;;19.25;;
82930;SDS011;72705;53.346;10.248;2024-03-02T00:53:17;52.58;;;20.58;;
82930;SDS011;72705;53.346;10.248;2024-03-02T00:55:49;48.65;;;21.02;;
82930;SDS011;72705;53.346;10.248;2024-03-02T00:58:15;50.83;;;22.42;;
82930;SDS011;72705;53.346;10.248;2024-03-02T01:00:40;46.63;;;21.55;;
82930;SDS011;72705;53.346;10.248;2024-03-02T01:03:06;50.30;;;21.42;;
82930;SDS011;72705;53.346;10.248;2024-03-02T01:05:33;44.08;;;20.92;;
82930;SDS011;72705;53.346;10.248;2024-03-02T01:08:00;43.58;;;21.30;;
82930;SDS011;72705;53.346;10.248;2024-03-02T01:10:28;48.63;;;20.70;;
82930;SDS011;72705;53.346;10.248;2024-03-02T01:12:54;51.63;;;21.45;;
82930;SDS011;72705;53.346;10.248;2024-03-02T01:15:19;57.80;;;21.60;;
82930;SDS011;72705;53.346;10.248;2024-03-02T01:17:45;47.92;;;21.50;;
82930;SDS011;72705;53.346;10.248;2024-03-02T01:20:11;49.28;;;21.88;;
82930;SDS011;72705;53.346;10.248;2024-03-02T01:22:36;46.90;;;21.48;;
82930;SDS011;72705;53.346;10.248;2024-03-02T01:25:02;47.00;;;21.75;;
82930;SDS011;72705;53.346;10.248;2024-03-02T01:27:28;44.00;;;19.67;;
82930;SDS011;72705;53.346;10.248;2024-03-02T01:29:53;44.20;;;20.07;;
82930;SDS011;72705;53.346;10.248;2024-03-02T01:32:19;47.42;;;22.13;;
82930;SDS011;72705;53.346;10.248;2024-03-02T01:34:45;56.88;;;22.58;;
82930;SDS011;72705;53.346;10.248;2024-03-02T01:37:10;47.23;;;20.77;;
82930;SDS011;72705;53.346;10.248;2024-03-02T01:39:35;50.05;;;20.42;;
82930;SDS011;72705;53.346;10.248;2024-03-02T01:42:01;48.10;;;22.15;;
82930;SDS011;72705;53.346;10.248;2024-03-02T01:44:26;51.05;;;22.77;;
82930;SDS011;72705;53.346;10.248;2024-03-02T01:46:52;51.00;;;22.77;;
82930;SDS011;72705;53.346;10.248;2024-03-02T01:49:17;53.88;;;21.95;;
82930;SDS011;72705;53.346;10.248;2024-03-02T01:51:43;52.30;;;20.42;;
82930;SDS011;72705;53.346;10.248;2024-03-02T01:54:09;51.08;;;23.15;;
82930;SDS011;72705;53.346;10.248;2024-03-02T01:56:35;50.00;;;22.48;;
82930;SDS011;72705;53.346;10.248;2024-03-02T01:59:00;50.13;;;20.95;;
82930;SDS011;72705;53.346;10.248;2024-03-02T02:01:29;50.13;;;21.35;;
82930;SDS011;72705;53.346;10.248;2024-03-02T02:03:56;52.60;;;23.15;;
82930;SDS011;72705;53.346;10.248;2024-03-02T02:06:22;59.22;;;24.33;;
82930;SDS011;72705;53.346;10.248;2024-03-02T02:08:47;53.70;;;21.08;;
82930;SDS011;72705;53.346;10.248;2024-03-02T02:11:15;51.43;;;22.60;;
82930;SDS011;72705;53.346;10.248;2024-03-02T02:13:41;51.92;;;21.58;;
82930;SDS011;72705;53.346;10.248;2024-03-02T02:16:07;56.50;;;24.05;;
82930;SDS011;72705;53.346;10.248;2024-03-02T02:18:33;52.33;;;22.27;;
82930;SDS011;72705;53.346;10.248;2024-03-02T02:20:59;51.75;;;23.38;;
82930;SDS011;72705;53.346;10.248;2024-03-02T02:23:24;52.72;;;22.98;;
82930;SDS011;72705;53.346;10.248;2024-03-02T02:25:50;52.83;;;23.10;;
82930;SDS011;72705;53.346;10.248;2024-03-02T02:28:18;51.90;;;23.17;;
82930;SDS011;72705;53.346;10.248;2024-03-02T02:30:44;48.57;;;23.13;;
82930;SDS011;72705;53.346;10.248;2024-03-02T02:33:09;53.28;;;22.77;;
82930;SDS011;72705;53.346;10.248;2024-03-02T02:35:34;51.22;;;21.77;;
82930;SDS011;72705;53.346;10.248;2024-03-02T02:38:00;48.03;;;21.15;;
82930;SDS011;72705;53.346;10.248;2024-03-02T02:40:27;51.67;;;21.95;;
82930;SDS011;72705;53.346;10.248;2024-03-02T02:42:54;55.17;;;23.13;;
82930;SDS011;72705;53.346;10.248;2024-03-02T02:45:19;55.35;;;24.17;;
82930;SDS011;72705;53.346;10.248;2024-03-02T02:47:45;55.38;;;22.13;;
82930;SDS011;72705;53.346;10.248;2024-03-02T02:50:11;53.40;;;22.93;;
82930;SDS011;72705;53.346;10.248;2024-03-02T02:52:37;52.03;;;22.52;;
82930;SDS011;72705;53.346;10.248;2024-03-02T02:55:05;56.05;;;24.70;;
82930;SDS011;72705;53.346;10.248;2024-03-02T02:57:32;46.67;;;22.00;;
82930;SDS011;72705;53.346;10.248;2024-03-02T03:00:10;49.25;;;23.50;;
82930;SDS011;72705;53.346;10.248;2024-03-02T03:02:42;49.10;;;22.38;;
82930;SDS011;72705;53.346;10.248;2024-03-02T03:05:08;53.92;;;24.58;;
82930;SDS011;72705;53.346;10.248;2024-03-02T03:07:35;46.50;;;20.58;;
82930;SDS011;72705;53.346;10.248;2024-03-02T03:10:01;52.45;;;23.05;;
82930;SDS011;72705;53.346;10.248;2024-03-02T03:12:28;50.40;;;22.33;;
82930;SDS011;72705;53.346;10.248;2024-03-02T03:14:54;50.97;;;23.38;;
82930;SDS011;72705;53.346;10.248;2024-03-02T03:17:21;47.83;;;20.73;;
82930;SDS011;72705;53.346;10.248;2024-03-02T03:19:47;50.38;;;23.10;;
82930;SDS011;72705;53.346;10.248;2024-03-02T03:22:14;52.72;;;23.30;;
82930;SDS011;72705;53.346;10.248;2024-03-02T03:24:40;49.17;;;22.45;;
82930;SDS011;72705;53.346;10.248;2024-03-02T03:27:05;49.78;;;22.25;;
82930;SDS011;72705;53.346;10.248;2024-03-02T03:29:31;54.03;;;24.48;;
82930;SDS011;72705;53.346;10.248;2024-03-02T03:31:57;54.73;;;23.97;;
82930;SDS011;72705;53.346;10.248;2024-03-02T03:34:22;52.93;;;22.03;;
82930;SDS011;72705;53.346;10.248;2024-03-02T03:36:47;48.93;;;22.00;;
82930;SDS011;72705;53.346;10.248;2024-03-02T03:39:13;52.17;;;23.07;;
82930;SDS011;72705;53.346;10.248;2024-03-02T03:41:40;45.10;;;22.27;;
82930;SDS011;72705;53.346;10.248;2024-03-02T03:44:05;51.35;;;22.75;;
82930;SDS011;72705;53.346;10.248;2024-03-02T03:46:30;46.27;;;20.53;;
82930;SDS011;72705;53.346;10.248;2024-03-02T03:48:56;43.57;;;20.70;;
82930;SDS011;72705;53.346;10.248;2024-03-02T03:51:21;48.57;;;22.43;;
82930;SDS011;72705;53.346;10.248;2024-03-02T03:53:49;55.17;;;22.70;;
82930;SDS011;72705;53.346;10.248;2024-03-02T03:56:15;48.97;;;21.38;;
82930;SDS011;72705;53.346;10.248;2024-03-02T03:58:40;47.93;;;22.83;;
82930;SDS011;72705;53.346;10.248;2024-03-02T04:01:06;52.80;;;21.85;;
82930;SDS011;72705;53.346;10.248;2024-03-02T04:03:32;53.50;;;23.25;;
82930;SDS011;72705;53.346;10.248;2024-03-02T04:05:58;55.37;;;22.53;;
82930;SDS011;72705;53.346;10.248;2024-03-02T04:08:25;52.47;;;22.02;;
82930;SDS011;72705;53.346;10.248;2024-03-02T04:10:52;48.80;;;22.57;;
82930;SDS011;72705;53.346;10.248;2024-03-02T04:13:17;47.80;;;21.45;;
82930;SDS011;72705;53.346;10.248;2024-03-02T04:15:42;52.60;;;22.77;;
82930;SDS011;72705;53.346;10.248;2024-03-02T04:18:08;50.78;;;22.40;;
82930;SDS011;72705;53.346;10.248;2024-03-02T04:20:33;47.63;;;21.75;;
82930;SDS011;72705;53.346;10.248;2024-03-02T04:23:01;52.10;;;23.42;;
82930;SDS011;72705;53.346;10.248;2024-03-02T04:25:27;50.67;;;21.90;;
82930;SDS011;72705;53.346;10.248;2024-03-02T04:27:53;48.50;;;21.23;;
82930;SDS011;72705;53.346;10.248;2024-03-02T04:30:18;46.30;;;21.90;;
82930;SDS011;72705;53.346;10.248;2024-03-02T04:32:43;51.20;;;22.70;;
82930;SDS011;72705;53.346;10.248;2024-03-02T04:35:11;50.13;;;22.73;;
82930;SDS011;72705;53.346;10.248;2024-03-02T04:37:37;50.85;;;22.38;;
82930;SDS011;72705;53.346;10.248;2024-03-02T04:40:03;51.75;;;21.67;;
82930;SDS011;72705;53.346;10.248;2024-03-02T04:42:33;46.05;;;20.50;;
82930;SDS011;72705;53.346;10.248;2024-03-02T04:45:00;51.80;;;22.95;;
82930;SDS011;72705;53.346;10.248;2024-03-02T04:47:28;45.88;;;20.75;;
82930;SDS011;72705;53.346;10.248;2024-03-02T04:49:54;51.13;;;22.10;;
82930;SDS011;72705;53.346;10.248;2024-03-02T04:52:19;49.85;;;22.27;;
82930;SDS011;72705;53.346;10.248;2024-03-02T04:54:44;48.00;;;22.30;;
82930;SDS011;72705;53.346;10.248;2024-03-02T04:57:28;46.72;;;20.38;;
82930;SDS011;72705;53.346;10.248;2024-03-02T04:59:54;55.10;;;22.07;;
82930;SDS011;72705;53.346;10.248;2024-03-02T05:02:19;42.38;;;20.17;;
82930;SDS011;72705;53.346;10.248;2024-03-02T05:04:51;53.55;;;23.48;;
82930;SDS011;72705;53.346;10.248;2024-03-02T05:07:17;50.00;;;22.00;;
82930;SDS011;72705;53.346;10.248;2024-03-02T05:09:42;51.53;;;24.00;;
82930;SDS011;72705;53.346;10.248;2024-03-02T05:12:09;46.00;;;20.03;;
82930;SDS011;72705;53.346;10.248;2024-03-02T05:14:53;44.45;;;20.73;;
82930;SDS011;72705;53.346;10.248;2024-03-02T05:17:18;60.33;;;23.42;;
82930;SDS011;72705;53.346;10.248;2024-03-02T05:19:44;46.90;;;21.77;;
82930;SDS011;72705;53.346;10.248;2024-03-02T05:22:09;49.37;;;21.50;;
82930;SDS011;72705;53.346;10.248;2024-03-02T05:24:34;48.33;;;20.70;;
82930;SDS011;72705;53.346;10.248;2024-03-02T05:27:00;46.53;;;21.27;;
82930;SDS011;72705;53.346;10.248;2024-03-02T05:29:25;43.08;;;20.25;;
82930;SDS011;72705;53.346;10.248;2024-03-02T05:31:50;41.27;;;19.67;;
82930;SDS011;72705;53.346;10.248;2024-03-02T05:34:16;48.95;;;20.75;;
82930;SDS011;72705;53.346;10.248;2024-03-02T05:36:41;47.70;;;21.93;;
82930;SDS011;72705;53.346;10.248;2024-03-02T05:39:07;49.03;;;20.70;;
82930;SDS011;72705;53.346;10.248;2024-03-02T05:41:34;47.25;;;19.98;;
82930;SDS011;72705;53.346;10.248;2024-03-02T05:44:00;54.80;;;21.50;;
82930;SDS011;72705;53.346;10.248;2024-03-02T05:46:28;47.72;;;21.45;;
82930;SDS011;72705;53.346;10.248;2024-03-02T05:48:53;48.43;;;20.30;;
82930;SDS011;72705;53.346;10.248;2024-03-02T05:51:18;52.17;;;21.50;;
82930;SDS011;72705;53.346;10.248;2024-03-02T05:53:44;43.83;;;20.37;;
82930;SDS011;72705;53.346;10.248;2024-03-02T05:56:10;42.87;;;20.20;;
82930;SDS011;72705;53.346;10.248;2024-03-02T05:58:37;49.30;;;22.38;;
82930;SDS011;72705;53.346;10.248;2024-03-02T06:01:22;45.05;;;20.10;;
82930;SDS011;72705;53.346;10.248;2024-03-02T06:03:53;47.95;;;21.40;;
82930;SDS011;72705;53.346;10.248;2024-03-02T06:06:19;50.80;;;22.23;;
82930;SDS011;72705;53.346;10.248;2024-03-02T06:08:45;46.47;;;19.63;;
82930;SDS011;72705;53.346;10.248;2024-03-02T06:11:11;45.05;;;22.38;;
82930;SDS011;72705;53.346;10.248;2024-03-02T06:13:36;44.37;;;21.70;;
82930;SDS011;72705;53.346;10.248;2024-03-02T06:16:01;40.00;;;19.77;;
82930;SDS011;72705;53.346;10.248;2024-03-02T06:18:27;41.07;;;21.00;;
82930;SDS011;72705;53.346;10.248;2024-03-02T06:20:53;44.80;;;21.83;;
82930;SDS011;72705;53.346;10.248;2024-03-02T06:23:18;50.30;;;21.98;;
82930;SDS011;72705;53.346;10.248;2024-03-02T06:25:43;42.90;;;23.00;;
82930;SDS011;72705;53.346;10.248;2024-03-02T06:28:09;39.70;;;19.88;;
82930;SDS011;72705;53.346;10.248;2024-03-02T06:30:34;41.60;;;20.48;;
82930;SDS011;72705;53.346;10.248;2024-03-02T06:33:00;49.28;;;21.67;;
82930;SDS011;72705;53.346;10.248;2024-03-02T06:35:25;45.42;;;21.73;;
82930;SDS011;72705;53.346;10.248;2024-03-02T06:37:51;43.33;;;20.92;;
82930;SDS011;72705;53.346;10.248;2024-03-02T06:40:16;46.28;;;21.70;;
82930;SDS011;72705;53.346;10.248;2024-03-02T06:42:42;41.05;;;20.65;;
82930;SDS011;72705;53.346;10.248;2024-03-02T06:45:07;41.70;;;19.67;;
82930;SDS011;72705;53.346;10.248;2024-03-02T06:47:33;48.95;;;21.95;;
82930;SDS011;72705;53.346;10.248;2024-03-02T06:49:58;49.93;;;22.73;;
82930;SDS011;72705;53.346;10.248;2024-03-02T06:52:24;43.42;;;21.02;;
82930;SDS011;72705;53.346;10.248;2024-03-02T06:54:49;44.47;;;18.55;;
82930;SDS011;72705;53.346;10.248;2024-03-02T06:57:16;48.75;;;22.48;;
82930;SDS011;72705;53.346;10.248;2024-03-02T06:59:42;48.75;;;22.20;;
82930;SDS011;72705;53.346;10.248;2024-03-02T07:02:07;45.80;;;20.33;;
82930;SDS011;72705;53.346;10.248;2024-03-02T07:04:33;45.33;;;20.83;;
82930;SDS011;72705;53.346;10.248;2024-03-02T07:06:59;42.60;;;20.42;;
82930;SDS011;72705;53.346;10.248;2024-03-02T07:09:24;47.00;;;20.97;;
82930;SDS011;72705;53.346;10.248;2024-03-02T07:11:50;47.80;;;22.13;;
82930;SDS011;72705;53.346;10.248;2024-03-02T07:14:16;41.92;;;22.75;;
82930;SDS011;72705;53.346;10.248;2024-03-02T07:16:41;45.05;;;21.98;;
82930;SDS011;72705;53.346;10.248;2024-03-02T07:19:08;46.72;;;21.25;;
82930;SDS011;72705;53.346;10.248;2024-03-02T07:21:34;46.42;;;21.98;;
82930;SDS011;72705;53.346;10.248;2024-03-02T07:23:59;44.10;;;21.85;;
82930;SDS011;72705;53.346;10.248;2024-03-02T07:26:27;41.40;;;20.08;;
82930;SDS011;72705;53.346;10.248;2024-03-02T07:28:53;42.85;;;20.90;;
82930;SDS011;72705;53.346;10.248;2024-03-02T07:31:19;44.42;;;22.15;;
82930;SDS011;72705;53.346;10.248;2024-03-02T07:33:45;42.42;;;19.15;;
82930;SDS011;72705;53.346;10.248;2024-03-02T07:36:11;41.42;;;20.73;;
82930;SDS011;72705;53.346;10.248;2024-03-02T07:38:37;48.72;;;20.67;;
82930;SDS011;72705;53.346;10.248;2024-03-02T07:41:03;39.78;;;20.30;;
82930;SDS011;72705;53.346;10.248;2024-03-02T07:43:30;42.78;;;20.00;;
82930;SDS011;72705;53.346;10.248;2024-03-02T07:45:58;42.63;;;20.58;;
82930;SDS011;72705;53.346;10.248;2024-03-02T07:48:28;42.67;;;21.00;;
82930;SDS011;72705;53.346;10.248;2024-03-02T07:50:54;43.28;;;20.02;;
82930;SDS011;72705;53.346;10.248;2024-03-02T07:53:19;41.15;;;19.52;;
82930;SDS011;72705;53.346;10.248;2024-03-02T07:55:45;42.10;;;21.42;;
82930;SDS011;72705;53.346;10.248;2024-03-02T07:58:10;43.63;;;20.52;;
82930;SDS011;72705;53.346;10.248;2024-03-02T08:00:38;41.17;;;20.90;;
82930;SDS011;72705;53.346;10.248;2024-03-02T08:03:04;40.60;;;19.80;;
82930;SDS011;72705;53.346;10.248;2024-03-02T08:05:29;42.47;;;21.10;;
82930;SDS011;72705;53.346;10.248;2024-03-02T08:07:56;42.08;;;18.73;;
82930;SDS011;72705;53.346;10.248;2024-03-02T08:10:21;38.85;;;18.27;;
82930;SDS011;72705;53.346;10.248;2024-03-02T08:12:47;38.17;;;20.35;;
82930;SDS011;72705;53.346;10.248;2024-03-02T08:15:12;39.70;;;18.83;;
82930;SDS011;72705;53.346;10.248;2024-03-02T08:17:38;36.83;;;19.42;;
82930;SDS011;72705;53.346;10.248;2024-03-02T08:20:10;40.25;;;18.08;;
82930;SDS011;72705;53.346;10.248;2024-03-02T08:22:36;37.28;;;18.67;;
82930;SDS011;72705;53.346;10.248;2024-03-02T08:25:03;39.05;;;18.38;;
82930;SDS011;72705;53.346;10.248;2024-03-02T08:27:30;30.13;;;16.52;;
82930;SDS011;72705;53.346;10.248;2024-03-02T08:29:57;36.90;;;17.83;;
82930;SDS011;72705;53.346;10.248;2024-03-02T08:32:22;34.27;;;17.37;;
82930;SDS011;72705;53.346;10.248;2024-03-02T08:34:47;37.03;;;17.73;;
82930;SDS011;72705;53.346;10.248;2024-03-02T08:37:13;35.83;;;17.50;;
82930;SDS011;72705;53.346;10.248;2024-03-02T08:39:38;32.08;;;16.13;;
82930;SDS011;72705;53.346;10.248;2024-03-02T08:42:05;31.20;;;16.67;;
82930;SDS011;72705;53.346;10.248;2024-03-02T08:44:30;32.45;;;17.70;;
82930;SDS011;72705;53.346;10.248;2024-03-02T08:46:56;33.13;;;17.23;;
82930;SDS011;72705;53.346;10.248;2024-03-02T08:49:21;33.10;;;17.55;;
82930;SDS011;72705;53.346;10.248;2024-03-02T08:51:48;33.88;;;16.90;;
82930;SDS011;72705;53.346;10.248;2024-03-02T08:54:19;30.05;;;16.23;;
82930;SDS011;72705;53.346;10.248;2024-03-02T08:56:48;32.03;;;16.13;;
82930;SDS011;72705;53.346;10.248;2024-03-02T08:59:16;31.38;;;16.00;;
82930;SDS011;72705;53.346;10.248;2024-03-02T09:01:41;32.25;;;16.33;;
82930;SDS011;72705;53.346;10.248;2024-03-02T09:04:07;28.88;;;15.27;;
82930;SDS011;72705;53.346;10.248;2024-03-02T09:09:00;32.37;;;14.87;;
82930;SDS011;72705;53.346;10.248;2024-03-02T09:11:26;27.10;;;14.45;;
82930;SDS011;72705;53.346;10.248;2024-03-02T09:13:52;31.17;;;15.77;;
82930;SDS011;72705;53.346;10.248;2024-03-02T09:18:46;30.10;;;14.80;;
82930;SDS011;72705;53.346;10.248;2024-03-02T09:21:12;25.98;;;13.25;;
82930;SDS011;72705;53.346;10.248;2024-03-02T09:23:37;24.77;;;14.00;;
82930;SDS011;72705;53.346;10.248;2024-03-02T09:26:04;25.65;;;13.18;;
82930;SDS011;72705;53.346;10.248;2024-03-02T09:28:31;27.48;;;13.80;;
82930;SDS011;72705;53.346;10.248;2024-03-02T09:30:56;23.67;;;12.93;;
82930;SDS011;72705;53.346;10.248;2024-03-02T09:33:22;26.87;;;13.90;;
82930;SDS011;72705;53.346;10.248;2024-03-02T09:35:48;25.17;;;12.20;;
82930;SDS011;72705;53.346;10.248;2024-03-02T09:38:14;25.27;;;13.13;;
82930;SDS011;72705;53.346;10.248;2024-03-02T09:40:40;23.77;;;12.98;;
82930;SDS011;72705;53.346;10.248;2024-03-02T09:43:09;25.08;;;12.45;;
82930;SDS011;72705;53.346;10.248;2024-03-02T09:45:37;22.33;;;12.27;;
82930;SDS011;72705;53.346;10.248;2024-03-02T09:48:02;22.35;;;11.75;;
82930;SDS011;72705;53.346;10.248;2024-03-02T09:50:28;18.20;;;10.25;;
82930;SDS011;72705;53.346;10.248;2024-03-02T09:52:55;19.58;;;10.85;;
82930;SDS011;72705;53.346;10.248;2024-03-02T09:55:21;21.52;;;11.75;;
82930;SDS011;72705;53.346;10.248;2024-03-02T09:57:47;19.48;;;10.77;;
82930;SDS011;72705;53.346;10.248;2024-03-02T10:00:15;18.77;;;10.02;;
82930;SDS011;72705;53.346;10.248;2024-03-02T10:02:41;17.88;;;10.05;;
82930;SDS011;72705;53.346;10.248;2024-03-02T10:05:07;17.63;;;9.75;;
82930;SDS011;72705;53.346;10.248;2024-03-02T10:10:15;14.55;;;7.30;;
82930;SDS011;72705;53.346;10.248;2024-03-02T10:12:42;17.73;;;9.00;;
82930;SDS011;72705;53.346;10.248;2024-03-02T10:15:07;16.10;;;9.57;;
82930;SDS011;72705;53.346;10.248;2024-03-02T10:17:34;16.17;;;8.18;;
82930;SDS011;72705;53.346;10.248;2024-03-02T10:20:20;15.63;;;8.75;;
82930;SDS011;72705;53.346;10.248;2024-03-02T10:22:49;13.20;;;7.70;;
82930;SDS011;72705;53.346;10.248;2024-03-02T10:25:31;13.90;;;8.63;;
82930;SDS011;72705;53.346;10.248;2024-03-02T10:27:58;15.10;;;7.68;;
82930;SDS011;72705;53.346;10.248;2024-03-02T10:30:28;15.32;;;8.30;;
82930;SDS011;72705;53.346;10.248;2024-03-02T10:32:54;13.35;;;7.55;;
82930;SDS011;72705;53.346;10.248;2024-03-02T10:35:26;13.32;;;7.93;;
82930;SDS011;72705;53.346;10.248;2024-03-02T10:37:55;15.00;;;7.28;;
82930;SDS011;72705;53.346;10.248;2024-03-02T10:40:24;11.80;;;7.47;;
82930;SDS011;72705;53.346;10.248;2024-03-02T10:42:53;14.98;;;8.73;;
82930;SDS011;72705;53.346;10.248;2024-03-02T10:45:21;16.38;;;8.05;;
82930;SDS011;72705;53.346;10.248;2024-03-02T10:47:53;12.95;;;7.88;;
82930;SDS011;72705;53.346;10.248;2024-03-02T10:50:20;13.88;;;7.80;;
82930;SDS011;72705;53.346;10.248;2024-03-02T10:52:47;14.35;;;7.90;;
82930;SDS011;72705;53.346;10.248;2024-03-02T10:55:16;12.70;;;7.50;;
82930;SDS011;72705;53.346;10.248;2024-03-02T10:58:01;12.60;;;7.63;;
82930;SDS011;72705;53.346;10.248;2024-03-02T11:00:33;13.07;;;7.18;;
82930;SDS011;72705;53.346;10.248;2024-03-02T11:05:38;13.57;;;8.02;;
82930;SDS011;72705;53.346;10.248;2024-03-02T11:08:08;12.45;;;7.60;;
82930;SDS011;72705;53.346;10.248;2024-03-02T11:10:39;11.68;;;7.35;;
82930;SDS011;72705;53.346;10.248;2024-03-02T11:13:12;14.35;;;8.13;;
82930;SDS011;72705;53.346;10.248;2024-03-02T11:15:39;15.63;;;7.85;;
82930;SDS011;72705;53.346;10.248;2024-03-02T11:18:05;14.32;;;7.90;;
82930;SDS011;72705;53.346;10.248;2024-03-02T11:20:35;16.02;;;9.80;;
82930;SDS011;72705;53.346;10.248;2024-03-02T11:23:06;16.60;;;8.80;;
82930;SDS011;72705;53.346;10.248;2024-03-02T11:25:35;15.32;;;9.48;;
82930;SDS011;72705;53.346;10.248;2024-03-02T11:28:03;13.63;;;7.82;;
82930;SDS011;72705;53.346;10.248;2024-03-02T11:33:09;20.75;;;11.50;;
82930;SDS011;72705;53.346;10.248;2024-03-02T11:35:37;18.58;;;10.18;;
82930;SDS011;72705;53.346;10.248;2024-03-02T11:38:11;20.60;;;11.88;;
82930;SDS011;72705;53.346;10.248;2024-03-02T11:40:38;19.40;;;10.50;;
82930;SDS011;72705;53.346;10.248;2024-03-02T11:43:05;15.85;;;10.25;;
82930;SDS011;72705;53.346;10.248;2024-03-02T11:45:33;19.38;;;10.35;;
82930;SDS011;72705;53.346;10.248;2024-03-02T11:48:04;17.35;;;10.02;;
82930;SDS011;72705;53.346;10.248;2024-03-02T11:50:35;18.35;;;10.90;;
82930;SDS011;72705;53.346;10.248;2024-03-02T11:53:07;18.48;;;10.02;;
82930;SDS011;72705;53.346;10.248;2024-03-02T11:55:36;16.70;;;8.75;;
82930;SDS011;72705;53.346;10.248;2024-03-02T11:58:09;15.32;;;9.70;;
82930;SDS011;72705;53.346;10.248;2024-03-02T12:00:36;18.58;;;9.98;;
82930;SDS011;72705;53.346;10.248;2024-03-02T12:03:03;16.30;;;9.00;;
82930;SDS011;72705;53.346;10.248;2024-03-02T12:05:33;17.23;;;9.35;;
82930;SDS011;72705;53.346;10.248;2024-03-02T12:08:01;18.63;;;10.68;;
82930;SDS011;72705;53.346;10.248;2024-03-02T12:10:28;18.30;;;10.93;;
82930;SDS011;72705;53.346;10.248;2024-03-02T12:15:33;15.48;;;8.90;;
82930;SDS011;72705;53.346;10.248;2024-03-02T12:18:07;15.85;;;10.32;;
82930;SDS011;72705;53.346;10.248;2024-03-02T12:20:35;16.42;;;9.57;;
82930;SDS011;72705;53.346;10.248;2024-03-02T12:23:06;15.68;;;8.85;;
82930;SDS011;72705;53.346;10.248;2024-03-02T12:25:32;18.67;;;9.45;;
82930;SDS011;72705;53.346;10.248;2024-03-02T12:27:59;18.23;;;10.20;;
82930;SDS011;72705;53.346;10.248;2024-03-02T12:30:29;16.25;;;10.38;;
82930;SDS011;72705;53.346;10.248;2024-03-02T12:32:55;18.17;;;10.50;;
82930;SDS011;72705;53.346;10.248;2024-03-02T12:35:21;17.85;;;10.93;;
82930;SDS011;72705;53.346;10.248;2024-03-02T12:37:48;18.60;;;9.43;;
82930;SDS011;72705;53.346;10.248;2024-03-02T12:40:15;15.52;;;9.25;;
82930;SDS011;72705;53.346;10.248;2024-03-02T12:42:46;14.95;;;8.43;;
82930;SDS011;72705;53.346;10.248;2024-03-02T12:45:14;14.73;;;8.25;;
82930;SDS011;72705;53.346;10.248;2024-03-02T12:47:41;16.75;;;8.00;;
82930;SDS011;72705;53.346;10.248;2024-03-02T12:50:09;15.85;;;9.10;;
82930;SDS011;72705;53.346;10.248;2024-03-02T12:52:50;15.88;;;8.27;;
82930;SDS011;72705;53.346;10.248;2024-03-02T12:55:17;18.00;;;10.27;;
82930;SDS011;72705;53.346;10.248;2024-03-02T12:57:43;17.83;;;10.23;;
82930;SDS011;72705;53.346;10.248;2024-03-02T13:00:11;18.45;;;10.25;;
82930;SDS011;72705;53.346;10.248;2024-03-02T13:02:39;18.70;;;10.85;;
82930;SDS011;72705;53.346;10.248;2024-03-02T13:05:07;19.20;;;11.32;;
82930;SDS011;72705;53.346;10.248;2024-03-02T13:07:36;15.32;;;8.90;;
82930;SDS011;72705;53.346;10.248;2024-03-02T13:10:02;13.82;;;9.18;;
82930;SDS011;72705;53.346;10.248;2024-03-02T13:12:28;16.15;;;9.02;;
82930;SDS011;72705;53.346;10.248;2024-03-02T13:17:24;14.07;;;8.15;;
82930;SDS011;72705;53.346;10.248;2024-03-02T13:19:59;17.17;;;8.40;;
82930;SDS011;72705;53.346;10.248;2024-03-02T13:22:31;12.90;;;7.13;;
82930;SDS011;72705;53.346;10.248;2024-03-02T13:24:56;11.50;;;6.90;;
82930;SDS011;72705;53.346;10.248;2024-03-02T13:27:22;12.05;;;6.78;;
82930;SDS011;72705;53.346;10.248;2024-03-02T13:29:48;11.60;;;7.00;;
82930;SDS011;72705;53.346;10.248;2024-03-02T13:32:14;13.20;;;7.50;;
82930;SDS011;72705;53.346;10.248;2024-03-02T13:34:41;12.13;;;6.10;;
82930;SDS011;72705;53.346;10.248;2024-03-02T13:37:07;11.73;;;6.95;;
82930;SDS011;72705;53.346;10.248;2024-03-02T13:39:33;10.93;;;6.40;;
82930;SDS011;72705;53.346;10.248;2024-03-02T13:42:05;13.43;;;6.18;;
82930;SDS011;72705;53.346;10.248;2024-03-02T13:44:40;14.82;;;7.15;;
82930;SDS011;72705;53.346;10.248;2024-03-02T13:47:09;12.45;;;6.95;;
82930;SDS011;72705;53.346;10.248;2024-03-02T13:49:34;11.95;;;7.03;;
82930;SDS011;72705;53.346;10.248;2024-03-02T13:52:13;12.80;;;6.68;;
82930;SDS011;72705;53.346;10.248;2024-03-02T13:54:41;12.25;;;7.30;;
82930;SDS011;72705;53.346;10.248;2024-03-02T13:57:08;13.07;;;6.85;;
82930;SDS011;72705;53.346;10.248;2024-03-02T13:59:35;10.88;;;6.82;;
82930;SDS011;72705;53.346;10.248;2024-03-02T14:02:01;10.10;;;7.53;;
82930;SDS011;72705;53.346;10.248;2024-03-02T14:04:31;12.23;;;6.60;;
82930;SDS011;72705;53.346;10.248;2024-03-02T14:06:58;10.93;;;6.10;;
82930;SDS011;72705;53.346;10.248;2024-03-02T14:09:24;9.60;;;6.22;;
82930;SDS011;72705;53.346;10.248;2024-03-02T14:11:51;11.05;;;6.78;;
82930;SDS011;72705;53.346;10.248;2024-03-02T14:14:17;12.40;;;7.68;;
82930;SDS011;72705;53.346;10.248;2024-03-02T14:16:43;12.85;;;7.20;;
82930;SDS011;72705;53.346;10.248;2024-03-02T14:19:10;13.82;;;7.13;;
82930;SDS011;72705;53.346;10.248;2024-03-02T14:21:36;13.30;;;8.00;;
82930;SDS011;72705;53.346;10.248;2024-03-02T14:24:03;13.30;;;7.85;;
82930;SDS011;72705;53.346;10.248;2024-03-02T14:26:29;14.27;;;7.78;;
82930;SDS011;72705;53.346;10.248;2024-03-02T14:28:55;15.55;;;9.35;;
82930;SDS011;72705;53.346;10.248;2024-03-02T14:31:21;19.27;;;10.13;;
82930;SDS011;72705;53.346;10.248;2024-03-02T14:33:52;14.60;;;8.75;;